Time;durP1;ratioP1;P1;durP2;ratioP2;P2;SDS_P1;SDS_P2;PMS_P1;PMS_P2;Temp;Humidity;BMP_temperature;BMP_pressure;BME280_temperature;BME280_humidity;BME280_pressure;Samples;Min_cycle;Max_cycle;Signal;HPM_P1;HPM_P2
2023/04/22 00:01:43;;;;;;;40.90;27.40;;;;;;;5.22;100.00;100701.97;5062980;28;20107;-80
2023/04/22 00:04:09;;;;;;;39.03;28.25;;;;;;;5.26;100.00;100701.22;5062271;28;20055;-79
2023/04/22 00:06:35;;;;;;;38.33;27.38;;;;;;;5.26;100.00;100697.69;5063902;28;20384;-77
2023/04/22 00:09:01;;;;;;;39.47;27.50;;;;;;;5.34;100.00;100693.50;5061362;28;20024;-75
2023/04/22 00:11:26;;;;;;;41.20;27.48;;;;;;;5.22;100.00;100700.22;5064410;28;20028;-72
2023/04/22 00:13:52;;;;;;;43.30;25.10;;;;;;;5.15;100.00;100689.56;5061430;28;20602;-75
2023/04/22 00:16:18;;;;;;;36.20;23.27;;;;;;;5.04;100.00;100699.81;5063561;28;20033;-74
2023/04/22 00:18:43;;;;;;;37.33;24.10;;;;;;;5.00;100.00;100697.97;5062331;28;20087;-79
2023/04/22 00:21:09;;;;;;;37.63;23.27;;;;;;;5.01;100.00;100699.69;5061920;28;20104;-75
2023/04/22 00:23:34;;;;;;;36.78;25.35;;;;;;;5.06;100.00;100693.72;5062764;28;20380;-79
2023/04/22 00:26:00;;;;;;;40.17;26.70;;;;;;;5.07;100.00;100689.41;5059941;28;20068;-78
2023/04/22 00:28:26;;;;;;;42.88;26.58;;;;;;;4.95;100.00;100695.22;5057001;28;20029;-75
2023/04/22 00:30:51;;;;;;;45.55;26.55;;;;;;;4.97;100.00;100690.03;5063696;28;20040;-77
2023/04/22 00:33:17;;;;;;;37.35;25.30;;;;;;;5.00;100.00;100692.72;5061992;28;20403;-73
2023/04/22 00:35:44;;;;;;;38.50;25.05;;;;;;;5.01;100.00;100699.69;5062543;28;20029;-78
2023/04/22 00:38:10;;;;;;;37.92;26.13;;;;;;;5.06;100.00;100698.09;5062772;28;20421;-80
2023/04/22 00:40:35;;;;;;;36.83;25.35;;;;;;;4.95;100.00;100697.84;5061595;28;20104;-72
2023/04/22 00:43:02;;;;;;;34.97;23.83;;;;;;;4.93;100.00;100688.16;5064269;28;20032;-74
2023/04/22 00:45:27;;;;;;;36.53;24.83;;;;;;;4.94;100.00;100695.19;5062379;28;20086;-76
2023/04/22 00:47:53;;;;;;;37.90;25.73;;;;;;;4.94;100.00;100693.44;5067732;28;20033;-74
2023/04/22 00:50:18;;;;;;;40.95;27.13;;;;;;;4.96;100.00;100703.97;5066025;28;20028;-75
2023/04/22 00:52:44;;;;;;;39.40;25.73;;;;;;;4.99;100.00;100702.28;5066504;28;20025;-73
2023/04/22 00:55:10;;;;;;;37.67;26.05;;;;;;;5.04;100.00;100703.31;5066970;28;20028;-73
2023/04/22 00:57:37;;;;;;;39.70;27.17;;;;;;;5.04;100.00;100703.31;5065440;28;20039;-74
2023/04/22 01:00:08;;;;;;;37.70;26.38;;;;;;;5.04;100.00;100694.56;5067847;28;20371;-74
2023/04/22 01:02:36;;;;;;;36.22;26.08;;;;;;;5.08;100.00;100701.63;5064965;28;20021;-74
2023/04/22 01:05:02;;;;;;;40.15;26.33;;;;;;;5.06;100.00;100698.97;5067981;28;20119;-74
2023/04/22 01:07:28;;;;;;;41.20;28.13;;;;;;;5.02;100.00;100701.47;5064570;28;20056;-74
2023/04/22 01:09:53;;;;;;;43.03;29.48;;;;;;;5.09;100.00;100692.06;5067535;28;20091;-74
2023/04/22 01:12:19;;;;;;;42.00;28.55;;;;;;;5.10;100.00;100692.09;5065594;28;20538;-71
2023/04/22 01:14:44;;;;;;;40.13;27.85;;;;;;;5.09;100.00;100692.94;5066120;28;20032;-73
2023/04/22 01:17:11;;;;;;;38.47;26.42;;;;;;;5.03;100.00;100696.28;5066196;28;20082;-73
2023/04/22 01:19:37;;;;;;;36.58;25.38;;;;;;;4.96;100.00;100691.72;5065043;28;20530;-74
2023/04/22 01:22:02;;;;;;;38.15;26.52;;;;;;;4.99;100.00;100689.19;5067363;28;20029;-73
2023/04/22 01:24:28;;;;;;;39.75;27.00;;;;;;;5.04;100.00;100684.09;5064086;28;20033;-73
2023/04/22 01:26:53;;;;;;;37.83;25.85;;;;;;;4.99;100.00;100690.94;5067287;28;20020;-74
2023/04/22 01:29:19;;;;;;;37.80;25.83;;;;;;;5.09;100.00;100687.69;5065270;28;20429;-73
2023/04/22 01:31:46;;;;;;;40.10;27.02;;;;;;;5.08;100.00;100683.28;5064607;28;20056;-73
2023/04/22 01:34:11;;;;;;;39.95;26.90;;;;;;;5.09;100.00;100685.06;5066282;28;20484;-75
2023/04/22 01:36:37;;;;;;;38.03;26.23;;;;;;;5.13;100.00;100688.66;5064700;28;20036;-70
2023/04/22 01:39:02;;;;;;;38.50;27.77;;;;;;;5.24;100.00;100685.44;5067296;28;20475;-72
2023/04/22 01:41:28;;;;;;;39.88;26.80;;;;;;;5.20;100.00;100685.34;5063843;28;20476;-72
2023/04/22 01:43:56;;;;;;;38.75;26.65;;;;;;;5.26;100.00;100687.19;5066892;28;20468;-76
2023/04/22 01:46:22;;;;;;;38.08;27.15;;;;;;;5.27;100.00;100676.78;5064478;28;20057;-74
2023/04/22 01:48:50;;;;;;;39.58;26.90;;;;;;;5.22;100.00;100678.38;5065904;28;20045;-72
2023/04/22 01:51:22;;;;;;;40.10;27.58;;;;;;;5.24;100.00;100680.19;5065112;28;20036;-72
2023/04/22 01:53:48;;;;;;;37.40;25.50;;;;;;;5.15;100.00;100677.34;5063677;28;20119;-73
2023/04/22 01:56:14;;;;;;;38.50;26.42;;;;;;;5.14;100.00;100675.59;5064645;28;20099;-72
2023/04/22 01:58:39;;;;;;;40.38;27.08;;;;;;;5.06;100.00;100677.13;5065520;28;20032;-76
2023/04/22 02:01:06;;;;;;;43.90;29.55;;;;;;;5.10;100.00;100672.84;5063936;28;20033;-74
2023/04/22 02:03:31;;;;;;;42.47;28.95;;;;;;;5.08;100.00;100672.81;5066980;28;20021;-70
2023/04/22 02:05:56;;;;;;;42.08;28.38;;;;;;;5.09;100.00;100674.59;5059326;28;20403;-71
2023/04/22 02:08:22;;;;;;;39.78;26.90;;;;;;;5.13;100.00;100675.56;5066321;28;20085;-73
2023/04/22 02:10:47;;;;;;;38.90;26.25;;;;;;;5.13;100.00;100678.19;5064513;28;20135;-74
2023/04/22 02:13:13;;;;;;;38.85;26.73;;;;;;;5.14;100.00;100686.06;5064813;28;20234;-74
2023/04/22 02:15:39;;;;;;;37.45;25.25;;;;;;;5.19;100.00;100673.06;5065908;28;20107;-74
2023/04/22 02:18:05;;;;;;;38.90;27.15;;;;;;;5.23;100.00;100678.41;5063147;28;20064;-72
2023/04/22 02:20:30;;;;;;;40.22;26.80;;;;;;;5.24;100.00;100674.97;5066622;28;20045;-73
2023/04/22 02:22:55;;;;;;;39.95;27.02;;;;;;;5.22;100.00;100678.38;5063374;28;20035;-71
2023/04/22 02:25:21;;;;;;;38.60;27.55;;;;;;;5.23;100.00;100669.69;5047702;28;20150;-74
2023/04/22 02:27:46;;;;;;;42.47;29.23;;;;;;;5.20;100.00;100665.25;5064310;28;20492;-74
2023/04/22 02:30:12;;;;;;;42.55;28.83;;;;;;;5.14;100.00;100672.97;5063298;28;20029;-73
2023/04/22 02:32:38;;;;;;;36.25;25.92;;;;;;;5.21;100.00;100667.03;5065569;28;20040;-73
2023/04/22 02:35:05;;;;;;;38.92;27.67;;;;;;;5.25;100.00;100652.25;5063089;28;20059;-73
2023/04/22 02:37:30;;;;;;;41.13;29.05;;;;;;;5.23;100.00;100653.97;5066354;28;20082;-73
2023/04/22 02:39:55;;;;;;;39.97;28.85;;;;;;;5.23;100.00;100649.59;5062909;28;20029;-74
2023/04/22 02:42:21;;;;;;;39.50;28.05;;;;;;;5.28;100.00;100654.06;5065312;28;20036;-74
2023/04/22 02:44:46;;;;;;;39.75;27.65;;;;;;;5.30;100.00;100654.97;5063141;28;20028;-75
2023/04/22 02:47:12;;;;;;;41.35;28.23;;;;;;;5.24;100.00;100653.09;5063957;28;20032;-75
2023/04/22 02:49:37;;;;;;;37.25;26.63;;;;;;;5.32;100.00;100648.03;5065537;28;20437;-76
2023/04/22 02:52:04;;;;;;;38.05;26.98;;;;;;;5.27;100.00;100655.81;5062750;28;20025;-73
2023/04/22 02:54:29;;;;;;;39.85;28.27;;;;;;;5.32;100.00;100658.53;5066024;28;20415;-74
2023/04/22 02:56:56;;;;;;;41.97;29.73;;;;;;;5.31;100.00;100652.38;5062836;28;20056;-75
2023/04/22 02:59:22;;;;;;;41.17;30.30;;;;;;;5.20;100.00;100646.91;5065130;28;20060;-77
2023/04/22 03:01:47;;;;;;;43.25;30.15;;;;;;;5.18;100.00;100645.97;5063710;28;20066;-74
2023/04/22 03:04:14;;;;;;;41.17;29.65;;;;;;;5.19;100.00;100645.13;5063882;28;20033;-76
2023/04/22 03:06:39;;;;;;;40.88;30.02;;;;;;;5.23;100.00;100660.06;5063512;28;20029;-75
2023/04/22 03:09:05;;;;;;;44.08;31.48;;;;;;;5.21;100.00;100646.06;5062416;28;20108;-75
2023/04/22 03:11:30;;;;;;;43.25;30.38;;;;;;;5.12;100.00;100648.44;5065717;28;20089;-75
2023/04/22 03:13:55;;;;;;;40.17;30.05;;;;;;;5.14;100.00;100632.75;5062337;28;20430;-78
2023/04/22 03:16:22;;;;;;;43.20;29.90;;;;;;;5.15;100.00;100639.78;5064453;28;20484;-75
2023/04/22 03:18:48;;;;;;;42.38;31.13;;;;;;;5.20;100.00;100639.03;5063180;28;20060;-76
2023/04/22 03:21:13;;;;;;;47.88;34.90;;;;;;;5.22;100.00;100636.44;5062390;28;20037;-74
2023/04/22 03:23:39;;;;;;;43.63;32.70;;;;;;;5.22;100.00;100634.72;5064350;28;20408;-76
2023/04/22 03:26:05;;;;;;;43.60;31.75;;;;;;;5.24;100.00;100635.66;5062550;28;20029;-71
2023/04/22 03:28:30;;;;;;;44.25;32.75;;;;;;;5.24;100.00;100630.41;5065260;28;20036;-73
2023/04/22 03:30:55;;;;;;;42.53;32.25;;;;;;;5.23;100.00;100623.38;5062011;28;20029;-70
2023/04/22 03:33:21;;;;;;;44.05;33.30;;;;;;;5.22;100.00;100616.34;5064432;28;20030;-74
2023/04/22 03:35:48;;;;;;;46.03;33.15;;;;;;;5.17;100.00;100625.88;5063099;28;20028;-75
2023/04/22 03:38:14;;;;;;;43.95;33.45;;;;;;;5.21;100.00;100622.47;5062892;28;20610;-71
2023/04/22 03:40:40;;;;;;;44.10;32.25;;;;;;;5.16;100.00;100608.38;5064169;28;20452;-72
2023/04/22 03:43:06;;;;;;;44.75;32.88;;;;;;;5.21;100.00;100613.72;5061938;28;20029;-72
2023/04/22 03:45:31;;;;;;;46.60;32.72;;;;;;;5.15;100.00;100609.22;5065104;28;20021;-73
2023/04/22 03:47:56;;;;;;;43.00;31.27;;;;;;;5.20;100.00;100612.84;5061778;28;20100;-74
2023/04/22 03:50:22;;;;;;;42.75;30.95;;;;;;;5.22;100.00;100610.25;5063979;28;20041;-73
2023/04/22 03:52:47;;;;;;;47.97;32.83;;;;;;;5.14;100.00;100602.22;5062926;28;20031;-73
2023/04/22 03:55:13;;;;;;;41.20;31.05;;;;;;;5.21;100.00;100601.50;5061705;28;20025;-73
2023/04/22 03:57:38;;;;;;;42.45;30.40;;;;;;;5.20;100.00;100599.72;5063915;28;20497;-72
2023/04/22 04:00:04;;;;;;;40.75;29.25;;;;;;;5.23;100.00;100605.03;5061431;28;20585;-74
2023/04/22 04:02:29;;;;;;;39.80;28.02;;;;;;;5.22;100.00;100600.63;5064827;28;20392;-75
2023/04/22 04:04:55;;;;;;;40.15;28.05;;;;;;;5.24;100.00;100598.94;5061468;28;20032;-71
2023/04/22 04:07:20;;;;;;;42.22;30.00;;;;;;;5.16;100.00;100595.25;5063654;28;20040;-71
2023/04/22 04:09:45;;;;;;;39.60;28.92;;;;;;;5.19;100.00;100590.09;5062805;28;20029;-72
2023/04/22 04:12:11;;;;;;;40.00;28.42;;;;;;;5.15;100.00;100590.88;5062355;28;20468;-74
2023/04/22 04:14:36;;;;;;;38.22;26.75;;;;;;;5.10;100.00;100583.75;5064517;28;20528;-75
2023/04/22 04:17:02;;;;;;;37.30;27.48;;;;;;;5.15;100.00;100587.38;5060899;28;20473;-77
2023/04/22 04:19:27;;;;;;;41.95;30.52;;;;;;;5.15;100.00;100592.59;5063854;28;20049;-73
2023/04/22 04:21:53;;;;;;;44.83;32.40;;;;;;;5.14;100.00;100589.13;5060251;28;20040;-73
2023/04/22 04:24:18;;;;;;;39.83;28.90;;;;;;;5.13;100.00;100594.31;5061723;28;20056;-73
2023/04/22 04:26:44;;;;;;;41.85;30.40;;;;;;;5.14;100.00;100590.84;5062941;28;20032;-73
2023/04/22 04:29:09;;;;;;;42.20;31.48;;;;;;;5.13;100.00;100584.72;5061683;28;20384;-70
2023/04/22 04:31:34;;;;;;;45.03;32.47;;;;;;;5.14;100.00;100573.41;5064118;28;20036;-71
2023/04/22 04:34:00;;;;;;;42.75;31.70;;;;;;;5.12;100.00;100577.69;5060994;28;20484;-71
2023/04/22 04:36:27;;;;;;;45.92;33.15;;;;;;;5.11;100.00;100581.19;5063783;28;20387;-72
2023/04/22 04:38:53;;;;;;;43.40;31.75;;;;;;;5.19;100.00;100586.59;5061374;28;20043;-71
2023/04/22 04:41:20;;;;;;;44.85;32.08;;;;;;;5.11;100.00;100586.44;5063111;28;20029;-74
2023/04/22 04:43:46;;;;;;;43.00;31.10;;;;;;;5.11;100.00;100586.44;5062548;28;20108;-74
2023/04/22 04:46:12;;;;;;;44.35;33.03;;;;;;;5.09;100.00;100588.13;5062027;28;20040;-74
2023/04/22 04:48:41;;;;;;;44.25;32.92;;;;;;;5.17;100.00;100583.03;5063773;28;20116;-75
2023/04/22 04:51:07;;;;;;;45.42;33.58;;;;;;;5.14;100.00;100586.50;5061228;28;20047;-76
2023/04/22 04:53:32;;;;;;;47.72;34.47;;;;;;;5.20;100.00;100596.22;5064210;28;20017;-75
2023/04/22 04:55:57;;;;;;;46.83;35.60;;;;;;;5.24;100.00;100598.03;5061001;28;20522;-76
2023/04/22 04:58:23;;;;;;;42.75;31.83;;;;;;;5.23;100.00;100596.28;5063538;28;20678;-76
2023/04/22 05:00:48;;;;;;;47.28;34.40;;;;;;;5.19;100.00;100597.94;5062135;28;20040;-76
2023/04/22 05:03:13;;;;;;;43.95;32.95;;;;;;;5.31;100.00;100601.69;5062175;28;20392;-76
2023/04/22 05:05:39;;;;;;;46.03;34.75;;;;;;;5.32;100.00;100598.22;5063298;28;20162;-79
2023/04/22 05:08:04;;;;;;;47.55;35.75;;;;;;;5.36;100.00;100586.97;5060737;28;20029;-76
2023/04/22 05:10:30;;;;;;;48.90;36.53;;;;;;;5.41;100.00;100596.69;5064192;28;20153;-76
2023/04/22 05:12:55;;;;;;;47.25;36.85;;;;;;;5.47;100.00;100595.94;5061076;28;20053;-77
2023/04/22 05:15:20;;;;;;;47.53;35.83;;;;;;;5.50;100.00;100582.00;5063052;28;20376;-76
2023/04/22 05:17:46;;;;;;;48.60;37.17;;;;;;;5.53;100.00;100575.09;5062078;28;20079;-78
2023/04/22 05:20:11;;;;;;;51.50;38.42;;;;;;;5.50;100.00;100580.25;5061423;28;20029;-75
2023/04/22 05:22:36;;;;;;;49.47;36.47;;;;;;;5.50;100.00;100577.63;5063531;28;20032;-72
2023/04/22 05:25:03;;;;;;;48.53;36.90;;;;;;;5.61;100.00;100584.84;5060311;28;20021;-74
2023/04/22 05:27:29;;;;;;;50.55;39.53;;;;;;;5.57;100.00;100590.00;5063897;28;20033;-71
2023/04/22 05:29:55;;;;;;;47.63;38.50;;;;;;;5.62;100.00;100595.38;5060981;28;20037;-72
2023/04/22 05:32:20;;;;;;;51.45;39.78;;;;;;;5.62;100.00;100595.38;5065431;28;20032;-72
2023/04/22 05:34:46;;;;;;;49.47;38.40;;;;;;;5.67;100.00;100592.84;5065730;28;20029;-70
2023/04/22 05:37:11;;;;;;;52.33;39.50;;;;;;;5.75;100.00;100592.16;5063940;28;20114;-70
2023/04/22 05:39:36;;;;;;;48.95;39.17;;;;;;;5.84;100.00;100583.56;5064082;28;20042;-73
2023/04/22 05:42:02;;;;;;;50.70;41.08;;;;;;;5.94;100.00;100577.66;5067361;28;20035;-70
2023/04/22 05:44:27;;;;;;;51.15;41.97;;;;;;;6.05;100.00;100575.25;5064145;28;20032;-72
2023/04/22 05:46:53;;;;;;;53.72;42.88;;;;;;;6.13;100.00;100585.91;5066587;28;20403;-73
2023/04/22 05:49:18;;;;;;;55.55;45.17;;;;;;;6.27;100.00;100583.50;5065456;28;20086;-73
2023/04/22 05:51:44;;;;;;;55.50;45.80;;;;;;;6.34;100.00;100592.41;5065194;28;20063;-75
2023/04/22 05:54:09;;;;;;;58.38;48.47;;;;;;;6.36;100.00;100590.66;5066215;28;20430;-73
2023/04/22 05:56:35;;;;;;;58.03;47.42;;;;;;;6.40;100.00;100588.13;5063851;28;20060;-73
2023/04/22 05:59:01;;;;;;;58.80;48.65;;;;;;;6.44;100.00;100584.69;5066850;28;20078;-73
2023/04/22 06:01:26;;;;;;;61.42;49.97;;;;;;;6.51;100.00;100577.81;5063801;28;20032;-73
2023/04/22 06:03:51;;;;;;;65.28;50.47;;;;;;;6.59;100.00;100572.69;5065901;28;20388;-73
2023/04/22 06:06:17;;;;;;;64.47;51.25;;;;;;;6.71;100.00;100579.88;5065033;28;20060;-74
2023/04/22 06:08:42;;;;;;;64.28;51.33;;;;;;;6.76;100.00;100575.59;5064437;28;20040;-74
2023/04/22 06:11:08;;;;;;;63.38;53.25;;;;;;;6.84;100.00;100573.94;5066520;28;20028;-74
2023/04/22 06:13:33;;;;;;;62.47;53.08;;;;;;;6.86;100.00;100580.13;5063400;28;20036;-71
2023/04/22 06:16:00;;;;;;;59.83;50.85;;;;;;;6.87;100.00;100586.25;5066518;28;20033;-74
2023/04/22 06:18:25;;;;;;;58.22;50.60;;;;;;;6.90;100.00;100591.53;5063769;28;20060;-74
2023/04/22 06:20:51;;;;;;;58.60;51.30;;;;;;;6.96;100.00;100579.41;5065173;28;20138;-74
2023/04/22 06:23:16;;;;;;;61.25;52.58;;;;;;;7.07;100.00;100578.66;5062378;28;20025;-74
2023/04/22 06:25:42;;;;;;;61.97;54.47;;;;;;;7.25;100.00;100573.69;5065563;28;20029;-74
2023/04/22 06:28:08;;;;;;;64.70;56.65;;;;;;;7.40;100.00;100565.09;5063370;28;20036;-74
2023/04/22 06:30:33;;;;;;;59.92;53.28;;;;;;;7.46;100.00;100565.16;5065468;28;20029;-75
2023/04/22 06:32:58;;;;;;;61.70;54.60;;;;;;;7.57;100.00;100567.94;5063418;28;20068;-74
2023/04/22 06:35:24;;;;;;;59.65;53.03;;;;;;;7.66;100.00;100573.31;5065486;28;20067;-71
2023/04/22 06:37:50;;;;;;;58.63;52.00;;;;;;;7.75;100.00;100572.53;5096610;28;20048;-73
2023/04/22 06:40:15;;;;;;;58.63;52.15;;;;;;;7.88;100.00;100570.94;5064213;28;20116;-73
2023/04/22 06:42:41;;;;;;;67.95;53.58;;;;;;;8.03;100.00;100565.81;5064683;28;20071;-74
2023/04/22 06:45:11;;;;;;;58.00;51.42;;;;;;;8.06;100.00;100564.97;5063143;28;20025;-74
2023/04/22 06:47:38;;;;;;;57.92;51.70;;;;;;;8.08;100.00;100557.09;5065738;28;20032;-70
2023/04/22 06:50:06;;;;;;;56.00;49.90;;;;;;;8.13;100.00;100550.13;5062825;28;20387;-71
2023/04/22 06:52:31;;;;;;;53.38;47.60;;;;;;;8.18;100.00;100540.50;5058819;28;20522;-70
2023/04/22 06:54:56;;;;;;;51.85;46.05;;;;;;;8.24;100.00;100553.72;5065427;28;20051;-72
2023/04/22 06:57:22;;;;;;;52.13;46.15;;;;;;;8.39;100.00;100560.91;5063693;28;20131;-70
2023/04/22 06:59:47;;;;;;;51.60;44.90;;;;;;;8.48;100.00;100570.66;5064439;28;20040;-70
2023/04/22 07:02:13;;;;;;;50.97;43.38;;;;;;;8.64;100.00;100562.00;5063376;28;20034;-70
2023/04/22 07:04:38;;;;;;;51.33;44.30;;;;;;;9.01;100.00;100559.66;5062821;28;20029;-76
2023/04/22 07:07:03;;;;;;;49.30;41.83;;;;;;;9.23;100.00;100557.09;5065908;28;20505;-73
2023/04/22 07:09:29;;;;;;;46.08;37.35;;;;;;;9.24;100.00;100556.25;5062288;28;20029;-71
2023/04/22 07:11:56;;;;;;;43.80;37.03;;;;;;;9.32;100.00;100554.53;5063686;28;20915;-71
2023/04/22 07:14:21;;;;;;;41.25;32.70;;;;;;;9.31;100.00;100551.91;5063337;28;20025;-71
2023/04/22 07:16:47;;;;;;;39.10;30.90;;;;;;;9.34;100.00;100555.41;5063639;28;20040;-73
2023/04/22 07:19:12;;;;;;;38.20;30.20;;;;;;;9.32;100.00;100557.19;5064250;28;20044;-74
2023/04/22 07:21:38;;;;;;;37.20;29.27;;;;;;;9.35;100.00;100551.91;5062307;28;20108;-75
2023/04/22 07:24:03;;;;;;;36.72;28.77;;;;;;;9.39;100.00;100553.69;5065365;28;20028;-71
2023/04/22 07:26:30;;;;;;;37.20;29.92;;;;;;;9.60;100.00;100557.28;5061905;28;20032;-72
2023/04/22 07:28:56;;;;;;;37.50;30.30;;;;;;;9.67;100.00;100560.81;5065011;28;20119;-70
2023/04/22 07:31:21;;;;;;;39.05;28.98;;;;;;;9.60;100.00;100557.28;5061722;28;20064;-71
2023/04/22 07:33:47;;;;;;;45.22;28.42;;;;;;;9.66;100.00;100553.81;5063511;28;20033;-75
2023/04/22 07:36:12;;;;;;;33.33;25.83;;;;;;;9.57;100.00;100555.53;5064118;28;20468;-74
2023/04/22 07:38:37;;;;;;;33.22;25.75;;;;;;;9.59;100.00;100537.91;5061876;28;20033;-76
2023/04/22 07:41:03;;;;;;;32.67;25.48;;;;;;;9.69;100.00;100546.75;5065312;28;20035;-75
2023/04/22 07:43:28;;;;;;;32.55;25.17;;;;;;;9.77;100.00;100549.41;5061791;28;20071;-75
2023/04/22 07:45:54;;;;;;;32.38;24.98;;;;;;;9.74;100.00;100549.41;5064090;28;20074;-76
2023/04/22 07:48:19;;;;;;;32.10;24.63;;;;;;;9.90;100.00;100555.59;5063334;28;20491;-76
2023/04/22 07:50:44;;;;;;;31.67;24.65;;;;;;;9.89;100.00;100553.88;5044950;28;20149;-79
2023/04/22 07:53:10;;;;;;;32.90;23.60;;;;;;;10.13;100.00;100534.53;5064131;28;20433;-76
2023/04/22 07:55:35;;;;;;;31.17;23.20;;;;;;;10.27;100.00;100529.28;5060792;28;20025;-76
2023/04/22 07:58:05;;;;;;;31.13;22.60;;;;;;;10.41;100.00;100524.91;5064803;28;20071;-79
2023/04/22 08:00:31;;;;;;;30.02;22.52;;;;;;;10.53;100.00;100517.84;5061489;28;20048;-76
2023/04/22 08:02:56;;;;;;;30.60;23.13;;;;;;;10.67;100.00;100517.84;5064377;28;20025;-79
2023/04/22 08:05:22;;;;;;;30.00;22.50;;;;;;;10.89;100.00;100510.75;5062279;28;20042;-77
2023/04/22 08:07:47;;;;;;;30.08;21.20;;;;;;;11.11;100.00;100498.34;5063009;28;20076;-74
2023/04/22 08:10:12;;;;;;;28.23;19.38;;;;;;;11.31;100.00;100495.63;5063832;28;20508;-75
2023/04/22 08:12:38;;;;;;;26.52;18.35;;;;;;;11.52;100.00;100479.66;5061204;28;20095;-75
2023/04/22 08:15:03;;;;;;;27.20;19.20;;;;;;;11.86;100.00;100479.44;5064638;28;20028;-70
2023/04/22 08:17:29;;;;;;;26.25;18.00;;;;;;;12.37;100.00;100478.19;5061180;28;20033;-77
2023/04/22 08:19:54;;;;;;;25.30;16.60;;;;;;;12.75;100.00;100476.94;5063552;28;20063;-75
2023/04/22 08:22:19;;;;;;;25.10;16.50;;;;;;;12.97;100.00;100476.72;5061259;28;20487;-75
2023/04/22 08:24:45;;;;;;;24.52;15.45;;;;;;;13.16;100.00;100470.28;5062434;28;20429;-75
2023/04/22 08:27:10;;;;;;;22.95;13.52;;;;;;;13.11;100.00;100469.47;5063837;28;20035;-76
2023/04/22 08:29:36;;;;;;;23.42;13.43;;;;;;;13.21;100.00;100455.19;5061122;28;20110;-76
2023/04/22 08:32:02;;;;;;;22.92;12.73;;;;;;;13.12;100.00;100459.72;5064220;28;20395;-75
2023/04/22 08:34:27;;;;;;;23.15;13.23;;;;;;;13.23;100.00;100458.69;5061521;28;20072;-74
2023/04/22 08:36:53;;;;;;;21.90;12.35;;;;;;;13.37;100.00;100460.34;5063289;28;20049;-71
2023/04/22 08:39:18;;;;;;;23.10;12.55;;;;;;;13.53;100.00;100461.88;5062437;28;20429;-75
2023/04/22 08:41:45;;;;;;;21.23;11.75;;;;;;;14.26;100.00;100447.50;5061863;28;20033;-71
2023/04/22 08:44:11;;;;;;;70.07;16.65;;;;;;;14.93;100.00;100428.56;5063595;28;20040;-73
2023/04/22 08:46:39;;;;;;;23.05;10.70;;;;;;;15.09;100.00;100423.78;5060826;28;20044;-71
2023/04/22 08:49:05;;;;;;;21.20;10.45;;;;;;;15.29;100.00;100418.91;5064227;28;20381;-74
2023/04/22 08:51:32;;;;;;;21.60;9.75;;;;;;;15.85;100.00;100409.69;5060888;28;20040;-72
2023/04/22 08:53:58;;;;;;;21.05;9.65;;;;;;;16.13;100.00;100409.84;5063639;28;20041;-72
2023/04/22 08:56:24;;;;;;;20.30;9.35;;;;;;;16.64;100.00;100416.50;5061646;28;20353;-74
2023/04/22 08:58:51;;;;;;;19.80;8.88;;;;;;;17.01;100.00;100417.31;5062619;28;20032;-74
2023/04/22 09:01:17;;;;;;;20.83;8.80;;;;;;;16.83;100.00;100408.00;5062390;28;20086;-70
2023/04/22 09:03:44;;;;;;;19.45;9.00;;;;;;;16.59;100.00;100405.09;5061688;28;20061;-79
2023/04/22 09:06:10;;;;;;;20.08;9.27;;;;;;;16.28;100.00;100411.28;5065255;28;20339;-77
2023/04/22 09:08:36;;;;;;;19.80;8.93;;;;;;;16.10;100.00;100409.94;5064905;28;20411;-74
2023/04/22 09:11:03;;;;;;;19.00;8.20;;;;;;;16.46;100.00;100417.03;5068005;28;20025;-73
2023/04/22 09:13:28;;;;;;;18.98;8.23;;;;;;;15.86;100.00;100404.31;5065597;28;20044;-72
2023/04/22 09:15:53;;;;;;;20.25;8.25;;;;;;;15.39;100.00;100405.38;5067121;28;20029;-77
2023/04/22 09:18:19;;;;;;;19.33;8.32;;;;;;;15.20;100.00;100408.44;5066004;28;20059;-71
2023/04/22 09:20:48;;;;;;;20.13;8.93;;;;;;;15.50;100.00;100401.56;5064564;28;20029;-76
2023/04/22 09:23:14;;;;;;;20.40;8.80;;;;;;;15.49;100.00;100413.16;5067013;28;20025;-78
2023/04/22 09:25:40;;;;;;;19.10;8.25;;;;;;;15.79;100.00;100404.50;5063649;28;20033;-73
2023/04/22 09:28:10;;;;;;;19.50;8.30;;;;;;;16.10;100.00;100409.94;5068118;28;20025;-73
2023/04/22 09:30:36;;;;;;;19.13;8.10;;;;;;;17.15;100.00;100396.41;5061102;28;20494;-74
2023/04/22 09:33:04;;;;;;;20.20;8.63;;;;;;;18.02;100.00;100399.06;5067959;28;20024;-76
2023/04/22 09:35:35;;;;;;;19.25;8.57;;;;;;;19.20;82.73;100393.09;5064568;28;20021;-76
2023/04/22 09:38:05;;;;;;;20.10;8.25;;;;;;;20.11;75.49;100394.81;5067526;28;20031;-76
2023/04/22 09:40:31;;;;;;;22.80;8.75;;;;;;;20.86;68.48;100396.91;5064151;28;20024;-76
2023/04/22 09:42:59;;;;;;;19.40;7.93;;;;;;;20.92;64.70;100400.25;5067232;28;20163;-76
2023/04/22 09:45:26;;;;;;;18.77;7.90;;;;;;;20.86;65.59;100402.28;5065045;28;20475;-74
2023/04/22 09:47:53;;;;;;;18.85;7.93;;;;;;;20.90;60.98;100408.41;5064721;28;20078;-76
2023/04/22 09:50:20;;;;;;;18.58;7.82;;;;;;;19.63;66.25;100404.78;5065872;28;20078;-76
2023/04/22 09:52:54;;;;;;;18.20;7.68;;;;;;;20.30;69.81;100411.00;5064997;28;20033;-71
2023/04/22 09:55:22;;;;;;;19.60;8.27;;;;;;;20.85;59.92;100413.09;5065527;28;20017;-78
2023/04/22 09:57:50;;;;;;;18.60;7.50;;;;;;;21.30;60.66;100413.72;5065166;28;20072;-75
2023/04/22 10:00:17;;;;;;;19.75;7.70;;;;;;;21.36;57.98;100403.56;5066189;28;20021;-74
2023/04/22 10:02:42;;;;;;;18.33;7.50;;;;;;;21.80;57.95;100397.00;5064713;28;20033;-77
2023/04/22 10:05:08;;;;;;;18.45;7.30;;;;;;;21.66;57.00;100402.19;5066954;28;20094;-80
2023/04/22 10:07:35;;;;;;;19.13;7.82;;;;;;;20.49;58.75;100411.06;5063851;28;20602;-78
2023/04/22 10:10:01;;;;;;;19.35;8.50;;;;;;;20.06;61.80;100404.88;5066766;28;20047;-75
2023/04/22 10:12:27;;;;;;;18.98;7.93;;;;;;;20.79;57.99;100402.63;5066943;28;20028;-72
2023/04/22 10:14:52;;;;;;;18.92;7.97;;;;;;;21.40;57.45;100402.47;5065077;28;20027;-71
2023/04/22 10:17:18;;;;;;;18.75;8.18;;;;;;;21.14;58.88;100413.56;5064061;28;20120;-77
2023/04/22 10:19:46;;;;;;;20.52;8.57;;;;;;;20.61;57.92;100410.53;5098112;28;20097;-74
2023/04/22 10:22:12;;;;;;;19.50;8.27;;;;;;;21.05;58.22;100412.19;5064327;28;20028;-75
2023/04/22 10:24:39;;;;;;;19.67;8.30;;;;;;;22.07;55.93;100420.78;5066951;28;20035;-77
2023/04/22 10:27:05;;;;;;;18.75;7.80;;;;;;;20.85;55.52;100419.34;5063442;28;20036;-77
2023/04/22 10:29:39;;;;;;;18.25;7.40;;;;;;;19.59;58.37;100408.53;5066991;28;20024;-74
2023/04/22 10:32:16;;;;;;;18.52;7.90;;;;;;;19.31;60.16;100409.63;5059524;28;20025;-76
2023/04/22 10:34:43;;;;;;;19.17;7.43;;;;;;;19.01;64.94;100401.81;5061037;28;20475;-77
2023/04/22 10:37:12;;;;;;;18.85;7.43;;;;;;;19.12;60.69;100399.63;5066621;28;20552;-78
2023/04/22 10:39:40;;;;;;;19.02;7.70;;;;;;;19.27;60.19;100386.56;5063554;28;20384;-74
2023/04/22 10:42:11;;;;;;;18.33;7.43;;;;;;;18.93;62.73;100377.13;5066560;28;20047;-78
2023/04/22 10:45:03;;;;;;;19.38;7.53;;;;;;;18.65;63.37;100378.13;5092015;28;20037;-74
2023/04/22 10:47:36;;;;;;;17.67;6.30;;;;;;;17.80;62.90;100385.50;5052986;28;20120;-75
2023/04/22 10:50:26;;;;;;;17.50;6.13;;;;;;;17.22;66.50;100386.41;5054492;28;20025;-74
2023/04/22 10:52:55;;;;;;;18.10;5.90;;;;;;;16.94;66.81;100394.41;5095634;28;20043;-74
2023/04/22 10:55:21;;;;;;;17.02;6.03;;;;;;;16.68;68.89;100396.84;5064706;28;20353;-75
2023/04/22 10:57:49;;;;;;;17.38;6.28;;;;;;;16.51;69.39;100410.66;5063851;28;20025;-74
2023/04/22 11:00:31;;;;;;;17.70;6.22;;;;;;;16.34;70.71;100402.22;5064879;28;20032;-74
2023/04/22 11:02:56;;;;;;;17.33;6.32;;;;;;;16.12;75.49;100412.56;5065120;28;20029;-74
2023/04/22 11:05:24;;;;;;;18.73;6.47;;;;;;;15.97;74.90;100404.03;5064240;28;20107;-75